Time;durP1;ratioP1;P1;durP2;ratioP2;P2;SDS_P1;SDS_P2;PMS_P1;PMS_P2;Temp;Humidity;BMP_temperature;BMP_pressure;BME280_temperature;BME280_humidity;BME280_pressure;Samples;Min_cycle;Max_cycle;Signal;HPM_P1;HPM_P2
2024/03/23 00:00:25;;;;;;;35.20;19.20;;;5.20;99.90;;;;;;4171550;28;20126;-55
2024/03/23 00:02:28;;;;;;;38.07;18.73;;;5.20;99.90;;;;;;4161251;28;20398;-57
2024/03/23 00:04:30;;;;;;;33.53;18.47;;;5.20;99.90;;;;;;4166928;28;20097;-56
2024/03/23 00:06:35;;;;;;;33.80;18.60;;;5.20;99.90;;;;;;4161653;28;20026;-53
2024/03/23 00:08:37;;;;;;;38.07;19.20;;;5.10;99.90;;;;;;4161956;28;20034;-56
2024/03/23 00:10:39;;;;;;;37.93;18.47;;;5.10;99.90;;;;;;4166986;28;20504;-57
2024/03/23 00:12:42;;;;;;;36.40;18.60;;;5.10;99.90;;;;;;4174045;28;20071;-56
2024/03/23 00:14:44;;;;;;;35.00;18.73;;;5.20;99.90;;;;;;4177910;28;20041;-57
2024/03/23 00:16:46;;;;;;;33.20;17.70;;;5.20;99.90;;;;;;4177608;28;20408;-57
2024/03/23 00:18:48;;;;;;;35.27;17.53;;;5.30;99.90;;;;;;4178222;28;20052;-55
2024/03/23 00:20:54;;;;;;;30.20;17.07;;;5.30;99.90;;;;;;4177384;28;20078;-56
2024/03/23 00:22:56;;;;;;;30.83;17.17;;;5.30;99.90;;;;;;4177972;28;20057;-55
2024/03/23 00:24:58;;;;;;;35.90;18.53;;;5.30;99.90;;;;;;4177317;28;20033;-54
2024/03/23 00:27:00;;;;;;;36.57;17.83;;;5.40;99.90;;;;;;4176619;28;20496;-56
2024/03/23 00:29:03;;;;;;;32.57;19.13;;;5.30;99.90;;;;;;4177066;28;20071;-56
2024/03/23 00:31:05;;;;;;;31.70;18.70;;;5.30;99.90;;;;;;4165667;28;20149;-51
2024/03/23 00:33:07;;;;;;;29.63;16.93;;;5.40;99.90;;;;;;4160576;28;20103;-57
2024/03/23 00:35:09;;;;;;;29.43;16.30;;;5.40;99.90;;;;;;4161293;28;20037;-56
2024/03/23 00:37:11;;;;;;;28.60;16.17;;;5.40;99.90;;;;;;4164598;28;20111;-55
2024/03/23 00:39:14;;;;;;;28.63;15.63;;;5.40;99.90;;;;;;4161608;28;20067;-56
2024/03/23 00:41:16;;;;;;;33.17;16.03;;;5.40;99.90;;;;;;4160454;28;20136;-55
2024/03/23 00:43:18;;;;;;;31.17;17.13;;;5.40;99.90;;;;;;4161008;28;20548;-57
2024/03/23 00:45:20;;;;;;;33.53;16.03;;;5.40;99.90;;;;;;4160227;28;20084;-55
2024/03/23 00:47:22;;;;;;;33.17;16.57;;;5.40;99.90;;;;;;4161065;28;20018;-58
2024/03/23 00:49:25;;;;;;;32.43;16.57;;;5.40;99.90;;;;;;4161240;28;20068;-57
2024/03/23 00:51:27;;;;;;;30.97;16.90;;;5.40;99.90;;;;;;4160462;28;20049;-57
2024/03/23 00:53:28;;;;;;;31.07;17.30;;;5.40;99.90;;;;;;4161180;28;20136;-58
2024/03/23 00:55:29;;;;;;;28.77;16.00;;;5.40;99.90;;;;;;4160715;28;20030;-56
2024/03/23 00:57:31;;;;;;;32.23;16.37;;;5.40;99.90;;;;;;4160707;28;20493;-53
2024/03/23 00:59:32;;;;;;;30.67;16.40;;;5.40;99.90;;;;;;4160319;28;20118;-58
2024/03/23 01:01:33;;;;;;;33.37;17.00;;;5.40;99.90;;;;;;4161565;28;20131;-57
2024/03/23 01:03:34;;;;;;;31.10;17.17;;;5.40;99.90;;;;;;4176355;28;20087;-57
2024/03/23 01:05:35;;;;;;;30.53;17.27;;;5.40;99.90;;;;;;4177640;28;20037;-59
2024/03/23 01:07:37;;;;;;;33.10;16.47;;;5.30;99.90;;;;;;4160119;28;20056;-56
2024/03/23 01:09:38;;;;;;;31.07;16.83;;;5.30;99.90;;;;;;4166292;28;20472;-56
2024/03/23 01:11:40;;;;;;;33.13;18.17;;;5.30;99.90;;;;;;4163159;28;20055;-54
2024/03/23 01:13:41;;;;;;;29.50;17.27;;;5.30;99.90;;;;;;4161742;28;20103;-56
2024/03/23 01:15:48;;;;;;;30.43;16.67;;;5.20;99.90;;;;;;4160102;28;20091;-54
2024/03/23 01:17:50;;;;;;;34.67;16.50;;;5.20;99.90;;;;;;4160569;28;20131;-56
2024/03/23 01:19:51;;;;;;;32.00;15.17;;;5.20;99.90;;;;;;4160311;28;20037;-57
2024/03/23 01:21:52;;;;;;;28.87;15.97;;;5.20;99.90;;;;;;4159175;28;20042;-56
2024/03/23 01:23:53;;;;;;;29.23;16.70;;;5.20;99.90;;;;;;4160772;28;20445;-54
2024/03/23 01:25:55;;;;;;;29.40;15.73;;;5.20;99.90;;;;;;4165188;28;20037;-54
2024/03/23 01:27:56;;;;;;;25.33;13.97;;;5.20;99.90;;;;;;4177319;28;20075;-54
2024/03/23 01:29:58;;;;;;;27.57;15.33;;;5.20;99.90;;;;;;4176172;28;20029;-56
2024/03/23 01:31:59;;;;;;;29.40;16.07;;;5.20;99.90;;;;;;4177464;28;20028;-55
2024/03/23 01:34:00;;;;;;;29.10;16.27;;;5.10;99.90;;;;;;4174696;28;20037;-58
2024/03/23 01:36:02;;;;;;;30.47;15.63;;;5.10;99.90;;;;;;4177589;28;20546;-57
2024/03/23 01:38:03;;;;;;;29.43;15.83;;;5.10;99.90;;;;;;4176407;28;20431;-57
2024/03/23 01:40:05;;;;;;;39.03;16.10;;;5.10;99.90;;;;;;4179608;28;20112;-56
2024/03/23 01:42:06;;;;;;;30.80;15.60;;;5.10;99.90;;;;;;4179499;28;20033;-55
2024/03/23 01:44:08;;;;;;;27.33;15.20;;;5.10;99.90;;;;;;4181009;28;20449;-54
2024/03/23 01:46:10;;;;;;;36.63;15.73;;;5.00;99.90;;;;;;4178824;28;20527;-57
2024/03/23 01:48:12;;;;;;;28.50;15.83;;;5.00;99.90;;;;;;4175625;28;20045;-55
2024/03/23 01:50:14;;;;;;;28.63;15.40;;;5.00;99.90;;;;;;4180234;28;20455;-57
2024/03/23 01:52:15;;;;;;;25.97;15.20;;;5.00;99.90;;;;;;4167310;28;20474;-55
2024/03/23 01:54:16;;;;;;;27.73;15.97;;;4.90;99.90;;;;;;4163594;28;20013;-57
2024/03/23 01:56:18;;;;;;;30.77;15.83;;;4.90;99.90;;;;;;4161059;28;20274;-56
2024/03/23 01:58:19;;;;;;;33.53;15.87;;;4.90;99.90;;;;;;4163851;28;20075;-56
2024/03/23 02:00:20;;;;;;;28.63;14.60;;;4.90;99.90;;;;;;4162366;28;20344;-54
2024/03/23 02:02:22;;;;;;;27.20;15.63;;;4.90;99.90;;;;;;4166179;28;20072;-51
2024/03/23 02:04:23;;;;;;;30.27;15.47;;;4.80;99.90;;;;;;4179375;28;20086;-51
2024/03/23 02:06:25;;;;;;;30.27;16.07;;;4.80;99.90;;;;;;4180170;28;20040;-53
2024/03/23 02:08:26;;;;;;;28.97;15.90;;;4.80;99.90;;;;;;4179046;28;20033;-54
2024/03/23 02:10:27;;;;;;;25.40;14.90;;;4.70;99.90;;;;;;4180090;28;20391;-55
2024/03/23 02:12:29;;;;;;;25.97;15.13;;;4.70;99.90;;;;;;4166823;28;20041;-57
2024/03/23 02:14:30;;;;;;;28.43;14.40;;;4.70;99.90;;;;;;4163752;28;20543;-54
2024/03/23 02:16:31;;;;;;;29.50;14.90;;;4.60;99.90;;;;;;4162255;28;20325;-53
2024/03/23 02:18:33;;;;;;;28.47;15.17;;;4.50;99.90;;;;;;4179782;28;20281;-51
2024/03/23 02:20:35;;;;;;;26.27;15.83;;;4.50;99.90;;;;;;4179664;28;20477;-52
2024/03/23 02:22:39;;;;;;;25.60;14.93;;;4.40;99.90;;;;;;4179634;28;20270;-50
2024/03/23 02:24:41;;;;;;;28.47;14.77;;;4.40;99.90;;;;;;4179537;28;20266;-51
2024/03/23 02:26:42;;;;;;;30.17;16.37;;;4.40;99.90;;;;;;4179601;28;20025;-56
2024/03/23 02:28:43;;;;;;;30.80;16.47;;;4.40;99.90;;;;;;4179531;28;20428;-57
2024/03/23 02:30:44;;;;;;;29.10;17.10;;;4.30;99.90;;;;;;4178756;28;20294;-55
2024/03/23 02:32:46;;;;;;;26.23;14.73;;;4.40;99.90;;;;;;4179906;28;20369;-57
2024/03/23 02:34:47;;;;;;;31.67;16.03;;;4.30;99.90;;;;;;4178430;28;20835;-58
2024/03/23 02:36:49;;;;;;;35.40;17.47;;;4.30;99.90;;;;;;4179417;28;20091;-56
2024/03/23 02:38:50;;;;;;;28.00;16.13;;;4.30;99.90;;;;;;4176617;28;20274;-56
2024/03/23 02:40:51;;;;;;;28.83;16.37;;;4.20;99.90;;;;;;4179891;28;20787;-56
2024/03/23 02:42:53;;;;;;;32.47;16.30;;;4.30;99.90;;;;;;4178881;28;20356;-56
2024/03/23 02:44:54;;;;;;;24.10;14.40;;;4.20;99.90;;;;;;4179976;28;20322;-55
2024/03/23 02:46:55;;;;;;;27.13;15.47;;;4.20;99.90;;;;;;4170358;28;20784;-56
2024/03/23 02:48:57;;;;;;;28.50;15.67;;;4.10;99.90;;;;;;4170216;28;20332;-57
2024/03/23 02:50:58;;;;;;;35.87;16.13;;;4.10;99.90;;;;;;4177833;28;20286;-56
2024/03/23 02:52:59;;;;;;;27.97;16.07;;;4.10;99.90;;;;;;4179020;28;20604;-54
2024/03/23 02:55:01;;;;;;;26.27;16.03;;;4.00;99.90;;;;;;4179121;28;20250;-60
2024/03/23 02:57:03;;;;;;;26.33;13.93;;;4.00;99.90;;;;;;4178750;28;20270;-59
2024/03/23 02:59:04;;;;;;;29.13;15.00;;;3.90;99.90;;;;;;4164316;28;20041;-58
2024/03/23 03:01:05;;;;;;;25.57;14.77;;;3.90;99.90;;;;;;4170986;28;20335;-58
2024/03/23 03:03:07;;;;;;;25.53;14.57;;;3.90;99.90;;;;;;4171442;28;20263;-55
2024/03/23 03:05:09;;;;;;;34.90;17.03;;;3.90;99.90;;;;;;4178590;28;20254;-55
2024/03/23 03:07:10;;;;;;;27.27;15.13;;;3.90;99.90;;;;;;4179739;28;20262;-54
2024/03/23 03:09:11;;;;;;;30.43;16.33;;;3.90;99.90;;;;;;4176969;28;20270;-58
2024/03/23 03:11:12;;;;;;;30.30;15.40;;;3.90;99.90;;;;;;4179520;28;20761;-57
2024/03/23 03:13:14;;;;;;;26.87;14.77;;;3.90;99.90;;;;;;4175915;28;20740;-57
2024/03/23 03:15:15;;;;;;;29.27;16.03;;;3.90;99.90;;;;;;4179739;28;20348;-56
2024/03/23 03:17:16;;;;;;;28.13;15.47;;;3.80;99.90;;;;;;4178380;28;20335;-57
2024/03/23 03:19:18;;;;;;;28.40;14.83;;;3.80;99.90;;;;;;4171437;28;20340;-56
2024/03/23 03:21:19;;;;;;;31.17;15.90;;;3.80;99.90;;;;;;4165760;28;20283;-56
2024/03/23 03:23:20;;;;;;;27.47;15.60;;;3.80;99.90;;;;;;4167343;28;20283;-56
2024/03/23 03:25:21;;;;;;;26.00;15.30;;;3.70;99.90;;;;;;4178221;28;20266;-56
2024/03/23 03:27:23;;;;;;;28.13;15.27;;;3.70;99.90;;;;;;4176984;28;20301;-55
2024/03/23 03:29:24;;;;;;;28.53;15.57;;;3.60;99.90;;;;;;4178427;28;20262;-55
2024/03/23 03:31:25;;;;;;;28.97;15.77;;;3.60;99.90;;;;;;4178357;28;20737;-52
2024/03/23 03:33:27;;;;;;;30.57;16.67;;;3.60;99.90;;;;;;4178775;28;20258;-52
2024/03/23 03:35:30;;;;;;;25.37;14.33;;;3.50;99.90;;;;;;4175971;28;20685;-52
2024/03/23 03:37:31;;;;;;;28.57;15.27;;;3.50;99.90;;;;;;4178135;28;20320;-56
2024/03/23 03:39:32;;;;;;;27.90;15.70;;;3.50;99.90;;;;;;4177081;28;20258;-51
2024/03/23 03:41:33;;;;;;;25.30;14.13;;;3.50;99.90;;;;;;4178693;28;20270;-53
2024/03/23 03:43:34;;;;;;;22.53;13.53;;;3.50;99.90;;;;;;4177661;28;20266;-52
2024/03/23 03:45:36;;;;;;;25.93;14.57;;;3.40;99.90;;;;;;4178235;28;20661;-52
2024/03/23 03:47:37;;;;;;;25.83;13.90;;;3.40;99.90;;;;;;4177391;28;20328;-53
2024/03/23 03:49:38;;;;;;;28.97;15.23;;;3.30;99.90;;;;;;4178418;28;20270;-55
2024/03/23 03:51:40;;;;;;;34.47;17.23;;;3.30;99.90;;;;;;4178009;28;20294;-53
2024/03/23 03:53:41;;;;;;;26.87;15.70;;;3.20;99.90;;;;;;4178697;28;20320;-53
2024/03/23 03:55:42;;;;;;;30.87;16.03;;;3.20;99.90;;;;;;4177880;28;20265;-56
2024/03/23 03:57:44;;;;;;;25.80;14.60;;;3.10;99.90;;;;;;4178198;28;20266;-57
2024/03/23 03:59:45;;;;;;;32.27;15.70;;;3.10;99.90;;;;;;4175985;28;20670;-55
2024/03/23 04:01:46;;;;;;;37.37;16.43;;;3.00;99.90;;;;;;4161675;28;20278;-55
2024/03/23 04:03:48;;;;;;;36.30;16.07;;;3.00;99.90;;;;;;4166037;28;20246;-55
2024/03/23 04:05:53;;;;;;;28.73;16.20;;;3.00;99.90;;;;;;4160915;28;20336;-55
2024/03/23 04:07:55;;;;;;;28.40;15.83;;;3.00;99.90;;;;;;4161920;28;20263;-56
2024/03/23 04:09:56;;;;;;;29.17;15.67;;;3.10;99.90;;;;;;4161985;28;20271;-57
2024/03/23 04:11:57;;;;;;;33.07;15.90;;;3.10;99.90;;;;;;4170264;28;20702;-58
2024/03/23 04:13:58;;;;;;;30.90;16.53;;;3.20;99.90;;;;;;4167681;28;20271;-57
2024/03/23 04:16:00;;;;;;;31.83;15.47;;;3.20;99.90;;;;;;4168789;28;20294;-53
2024/03/23 04:18:01;;;;;;;31.60;17.97;;;3.20;99.90;;;;;;4172440;28;20286;-58
2024/03/23 04:20:05;;;;;;;72.80;37.17;;;3.20;99.90;;;;;;4178539;28;20344;-58
2024/03/23 04:22:06;;;;;;;38.97;18.93;;;3.10;99.90;;;;;;4177422;28;20312;-55
2024/03/23 04:24:08;;;;;;;36.83;20.50;;;3.10;99.90;;;;;;4174457;28;20278;-58
2024/03/23 04:26:09;;;;;;;38.67;18.77;;;3.10;99.90;;;;;;4172563;28;20708;-54
2024/03/23 04:28:10;;;;;;;35.23;18.97;;;3.00;99.90;;;;;;4166066;28;20258;-54
2024/03/23 04:30:12;;;;;;;34.27;18.23;;;2.90;99.90;;;;;;4164177;28;20267;-56
2024/03/23 04:32:13;;;;;;;45.40;18.67;;;2.80;99.90;;;;;;4160319;28;20310;-54
2024/03/23 04:34:15;;;;;;;34.07;17.27;;;2.80;99.90;;;;;;4161090;28;20247;-55
2024/03/23 04:36:16;;;;;;;31.47;17.60;;;2.80;99.90;;;;;;4160345;28;20275;-54
2024/03/23 04:38:17;;;;;;;33.13;18.57;;;2.80;99.90;;;;;;4160966;28;20275;-54
2024/03/23 04:40:19;;;;;;;37.03;16.83;;;2.80;99.90;;;;;;4160527;28;21685;-55
2024/03/23 04:42:20;;;;;;;38.10;19.60;;;2.80;99.90;;;;;;4166003;28;20258;-55
2024/03/23 04:44:21;;;;;;;37.27;18.23;;;2.90;99.90;;;;;;4176296;28;20274;-54
2024/03/23 04:46:22;;;;;;;40.60;18.30;;;2.90;99.90;;;;;;4177770;28;20812;-56
2024/03/23 04:48:24;;;;;;;38.07;19.23;;;3.00;99.90;;;;;;4176133;28;20278;-56
2024/03/23 04:50:27;;;;;;;38.50;20.00;;;3.20;99.90;;;;;;4174164;28;20335;-54
2024/03/23 04:52:28;;;;;;;34.87;18.73;;;3.30;99.90;;;;;;4169775;28;20290;-57
2024/03/23 04:54:30;;;;;;;39.47;19.53;;;3.30;99.90;;;;;;4164059;28;20615;-57
2024/03/23 04:56:31;;;;;;;32.27;17.83;;;3.40;99.90;;;;;;4162259;28;20271;-56
2024/03/23 04:58:33;;;;;;;34.70;18.23;;;3.50;99.90;;;;;;4160616;28;20282;-51
2024/03/23 05:00:34;;;;;;;34.50;16.37;;;3.50;99.90;;;;;;4168519;28;20282;-55
2024/03/23 05:02:35;;;;;;;33.30;16.37;;;3.40;99.90;;;;;;4175202;28;20332;-54
2024/03/23 05:04:37;;;;;;;32.60;16.40;;;3.40;99.90;;;;;;4162704;28;20259;-54
2024/03/23 05:06:38;;;;;;;35.93;18.77;;;3.30;99.90;;;;;;4160148;28;20317;-55
2024/03/23 05:08:39;;;;;;;34.37;19.23;;;3.30;99.90;;;;;;4168469;28;20312;-55
2024/03/23 05:10:42;;;;;;;33.63;18.20;;;3.20;99.90;;;;;;4176038;28;20300;-57
2024/03/23 05:12:45;;;;;;;31.67;17.30;;;3.20;99.90;;;;;;4177659;28;20266;-54
2024/03/23 05:14:46;;;;;;;37.77;19.70;;;3.20;99.90;;;;;;4175585;28;20294;-56
2024/03/23 05:16:47;;;;;;;37.87;19.10;;;3.30;99.90;;;;;;4177744;28;20624;-58
2024/03/23 05:18:48;;;;;;;38.10;17.57;;;3.40;99.90;;;;;;4170112;28;20349;-56
2024/03/23 05:20:57;;;;;;;34.63;18.10;;;3.50;99.90;;;;;;4162330;28;20337;-57
2024/03/23 05:22:58;;;;;;;41.30;18.93;;;3.50;99.90;;;;;;4162561;28;20329;-55
2024/03/23 05:24:59;;;;;;;37.33;18.43;;;3.60;99.90;;;;;;4161794;28;20488;-59
2024/03/23 05:27:01;;;;;;;32.83;18.43;;;3.80;99.90;;;;;;4159777;28;20259;-56
2024/03/23 05:29:02;;;;;;;44.10;18.93;;;3.80;99.90;;;;;;4160628;28;20341;-59
2024/03/23 05:31:04;;;;;;;43.77;19.17;;;3.80;99.90;;;;;;4162051;28;20287;-56
2024/03/23 05:33:05;;;;;;;40.20;18.13;;;3.80;99.90;;;;;;4177530;28;20258;-58
2024/03/23 05:35:07;;;;;;;40.97;17.77;;;3.80;99.90;;;;;;4175868;28;20300;-57
2024/03/23 05:37:09;;;;;;;53.90;29.00;;;3.80;99.90;;;;;;4176671;28;20267;-56
2024/03/23 05:39:10;;;;;;;45.33;22.17;;;3.90;99.90;;;;;;4175354;28;20258;-56
2024/03/23 05:41:11;;;;;;;41.77;20.73;;;3.90;99.90;;;;;;4176696;28;20316;-56
2024/03/23 05:43:12;;;;;;;36.80;18.70;;;3.90;99.90;;;;;;4177356;28;20274;-55
2024/03/23 05:45:14;;;;;;;36.00;18.80;;;4.00;99.90;;;;;;4164575;28;20287;-56
2024/03/23 05:47:16;;;;;;;33.13;18.47;;;4.10;99.90;;;;;;4160808;28;20279;-60
2024/03/23 05:49:18;;;;;;;36.17;18.90;;;4.20;99.90;;;;;;4159525;28;20271;-56
2024/03/23 05:51:19;;;;;;;34.17;18.23;;;4.20;99.90;;;;;;4161182;28;20364;-56
2024/03/23 05:53:20;;;;;;;37.50;19.27;;;4.30;99.90;;;;;;4163650;28;20291;-53
2024/03/23 05:55:21;;;;;;;44.07;21.47;;;4.30;99.90;;;;;;4176167;28;20278;-56
2024/03/23 05:57:23;;;;;;;37.60;19.93;;;4.40;99.90;;;;;;4176169;28;20327;-53
2024/03/23 05:59:24;;;;;;;32.47;19.53;;;4.40;99.90;;;;;;4177143;28;20329;-56
2024/03/23 06:01:28;;;;;;;37.37;19.77;;;4.40;99.90;;;;;;4172804;28;20283;-57
2024/03/23 06:03:30;;;;;;;36.33;18.70;;;4.40;99.90;;;;;;4176439;28;20282;-52
2024/03/23 06:05:31;;;;;;;35.27;19.07;;;4.30;99.90;;;;;;4175676;28;20661;-55
2024/03/23 06:07:32;;;;;;;31.43;16.80;;;4.30;99.90;;;;;;4176381;28;20665;-56
2024/03/23 06:09:34;;;;;;;33.57;18.20;;;4.40;99.90;;;;;;4175865;28;20816;-56
2024/03/23 06:11:35;;;;;;;33.10;18.83;;;4.40;99.90;;;;;;4174498;28;20356;-57
2024/03/23 06:13:36;;;;;;;34.73;17.50;;;4.40;99.90;;;;;;4175219;28;20274;-57
2024/03/23 06:15:38;;;;;;;38.80;17.83;;;4.40;99.90;;;;;;4169375;28;20735;-59
2024/03/23 06:17:40;;;;;;;33.20;16.97;;;4.50;99.90;;;;;;4160642;28;20333;-60
2024/03/23 06:19:41;;;;;;;36.23;18.50;;;4.50;99.90;;;;;;4158912;28;20666;-58
2024/03/23 06:21:45;;;;;;;30.97;17.20;;;4.50;99.90;;;;;;4160889;28;20266;-54
2024/03/23 06:23:53;;;;;;;40.07;19.80;;;4.50;99.90;;;;;;4159698;28;20341;-54
2024/03/23 06:25:54;;;;;;;36.53;18.23;;;4.50;99.90;;;;;;4162496;28;20332;-56
2024/03/23 06:27:55;;;;;;;30.30;17.73;;;4.50;99.90;;;;;;4173406;28;20722;-54
2024/03/23 06:29:56;;;;;;;33.70;17.57;;;4.40;99.90;;;;;;4173147;28;20747;-56
2024/03/23 06:31:58;;;;;;;37.60;18.40;;;4.40;99.90;;;;;;4161786;28;20290;-56
2024/03/23 06:33:59;;;;;;;32.23;16.90;;;4.50;99.90;;;;;;4163492;28;20270;-57
2024/03/23 06:36:00;;;;;;;37.80;18.80;;;4.50;99.90;;;;;;4162297;28;20759;-54
2024/03/23 06:38:01;;;;;;;44.27;20.17;;;4.60;99.90;;;;;;4169751;28;20328;-55
2024/03/23 06:40:06;;;;;;;36.37;18.37;;;4.60;99.90;;;;;;4178778;28;20838;-60
2024/03/23 06:42:07;;;;;;;36.43;18.77;;;4.70;99.90;;;;;;4178797;28;20274;-56
2024/03/23 06:44:09;;;;;;;49.70;23.90;;;4.70;99.90;;;;;;4177114;28;20282;-55
2024/03/23 06:46:10;;;;;;;34.60;19.13;;;4.70;99.90;;;;;;4178904;28;20315;-55
2024/03/23 06:48:11;;;;;;;44.10;22.83;;;4.60;99.90;;;;;;4179331;28;20549;-56
2024/03/23 06:50:12;;;;;;;43.17;21.67;;;4.70;99.90;;;;;;4178924;28;20275;-60
2024/03/23 06:52:14;;;;;;;58.50;26.73;;;4.70;99.90;;;;;;4179318;28;20297;-57
2024/03/23 06:54:19;;;;;;;37.63;19.77;;;4.80;99.90;;;;;;4177369;28;20365;-55
2024/03/23 06:56:21;;;;;;;36.17;19.00;;;4.90;99.90;;;;;;4179826;28;20665;-56
2024/03/23 06:58:24;;;;;;;34.87;18.70;;;5.00;99.90;;;;;;4167172;28;20271;-56
2024/03/23 07:00:26;;;;;;;37.40;18.87;;;5.10;99.90;;;;;;4168211;28;20266;-59
2024/03/23 07:02:28;;;;;;;40.03;19.03;;;5.20;99.90;;;;;;4174923;28;20424;-57
2024/03/23 07:04:29;;;;;;;33.67;18.03;;;5.40;99.90;;;;;;4179070;28;20347;-57
2024/03/23 07:06:31;;;;;;;30.53;16.03;;;5.60;99.90;;;;;;4173887;28;20037;-57
2024/03/23 07:08:32;;;;;;;39.63;19.17;;;6.00;99.90;;;;;;4176915;28;20804;-56
2024/03/23 07:10:34;;;;;;;34.53;18.30;;;6.40;99.90;;;;;;4166145;28;20444;-56
2024/03/23 07:12:35;;;;;;;33.77;16.83;;;6.90;99.90;;;;;;4178057;28;20130;-57
2024/03/23 07:14:36;;;;;;;29.73;17.67;;;7.40;99.90;;;;;;4178655;28;20173;-57
2024/03/23 07:16:37;;;;;;;29.53;16.53;;;7.90;99.90;;;;;;4162981;28;20493;-53
2024/03/23 07:18:39;;;;;;;30.27;15.37;;;8.20;99.90;;;;;;4162560;28;20084;-59
2024/03/23 07:20:40;;;;;;;29.33;14.43;;;8.60;99.90;;;;;;4162358;28;20076;-60
2024/03/23 07:22:42;;;;;;;26.40;14.93;;;9.20;99.90;;;;;;4170448;28;20033;-58
2024/03/23 07:24:44;;;;;;;25.30;13.93;;;9.70;99.90;;;;;;4161618;28;20114;-59
2024/03/23 07:26:45;;;;;;;21.70;13.13;;;10.20;99.90;;;;;;4166732;28;20080;-55
2024/03/23 07:28:47;;;;;;;22.10;13.10;;;10.50;99.90;;;;;;4194477;28;20496;-56
2024/03/23 07:30:48;;;;;;;27.47;14.10;;;10.50;99.90;;;;;;4195559;28;20036;-58
2024/03/23 07:32:49;;;;;;;27.50;14.73;;;10.70;99.90;;;;;;4193088;28;20090;-58
2024/03/23 07:34:50;;;;;;;25.67;14.73;;;10.90;99.90;;;;;;4195476;28;20530;-57
2024/03/23 07:36:52;;;;;;;22.97;13.43;;;10.70;99.90;;;;;;4193271;28;20113;-58
2024/03/23 07:38:53;;;;;;;28.57;14.57;;;10.60;99.90;;;;;;4173244;28;20480;-54
2024/03/23 07:41:04;;;;;;;25.57;14.03;;;10.40;99.90;;;;;;4177623;28;20025;-52
2024/03/23 07:43:05;;;;;;;25.10;13.43;;;10.30;99.90;;;;;;4176535;28;20090;-57
2024/03/23 07:45:06;;;;;;;24.93;13.37;;;10.20;99.90;;;;;;4160590;28;20026;-55
2024/03/23 07:47:08;;;;;;;24.67;12.17;;;10.50;99.90;;;;;;4161134;28;20445;-54
2024/03/23 07:49:09;;;;;;;24.33;13.50;;;10.60;99.90;;;;;;4161185;28;20098;-60
2024/03/23 07:51:16;;;;;;;21.83;11.87;;;10.70;99.90;;;;;;4168381;28;20119;-57
2024/03/23 07:53:18;;;;;;;20.13;12.77;;;10.80;99.90;;;;;;4177929;28;20049;-59
2024/03/23 07:55:19;;;;;;;19.03;12.07;;;10.80;99.90;;;;;;4174163;28;20125;-59
2024/03/23 07:57:21;;;;;;;20.53;11.83;;;10.70;99.90;;;;;;4161749;28;20033;-59
2024/03/23 07:59:22;;;;;;;23.77;12.90;;;10.40;99.90;;;;;;4160560;28;20041;-58
2024/03/23 08:01:23;;;;;;;19.23;11.60;;;10.50;99.90;;;;;;4176271;28;20440;-59
2024/03/23 08:03:25;;;;;;;24.97;13.57;;;10.50;99.90;;;;;;4176902;28;20055;-57
2024/03/23 08:05:26;;;;;;;20.13;11.70;;;10.70;99.90;;;;;;4178277;28;20140;-56
2024/03/23 08:07:28;;;;;;;20.37;11.70;;;10.90;99.90;;;;;;4176868;28;20041;-60
2024/03/23 08:09:29;;;;;;;20.17;11.37;;;11.00;99.90;;;;;;4171248;28;20095;-57
2024/03/23 08:11:35;;;;;;;25.83;11.47;;;11.00;99.90;;;;;;4175142;28;20041;-58
2024/03/23 08:13:39;;;;;;;19.43;11.03;;;10.90;99.90;;;;;;4178005;28;20067;-59
2024/03/23 08:15:40;;;;;;;19.23;10.37;;;10.90;99.90;;;;;;4176462;28;20091;-61
2024/03/23 08:17:41;;;;;;;16.33;10.20;;;10.90;99.90;;;;;;4175866;28;20032;-57
2024/03/23 08:19:42;;;;;;;17.57;11.00;;;11.00;99.90;;;;;;4176927;28;20029;-60
2024/03/23 08:21:44;;;;;;;17.87;10.20;;;11.00;99.90;;;;;;4177207;28;20037;-59
2024/03/23 08:23:45;;;;;;;23.17;11.73;;;11.10;99.90;;;;;;4177307;28;20098;-61
2024/03/23 08:25:46;;;;;;;18.67;10.33;;;11.10;99.90;;;;;;4177359;28;20052;-62
2024/03/23 08:27:47;;;;;;;20.67;11.53;;;11.20;99.90;;;;;;4177592;28;20025;-53
2024/03/23 08:29:48;;;;;;;19.53;9.53;;;11.30;99.90;;;;;;4176980;28;20492;-58
2024/03/23 08:31:50;;;;;;;19.37;10.87;;;11.40;99.90;;;;;;4177887;28;20045;-52
2024/03/23 08:33:51;;;;;;;14.40;9.90;;;11.30;99.90;;;;;;4175932;28;20110;-58
2024/03/23 08:36:00;;;;;;;20.67;10.10;;;11.40;99.90;;;;;;4177753;28;20091;-58
2024/03/23 08:38:02;;;;;;;15.20;10.17;;;11.40;99.90;;;;;;4165135;28;20046;-58
2024/03/23 08:40:04;;;;;;;16.83;10.07;;;11.40;99.90;;;;;;4166027;28;20042;-56
2024/03/23 08:42:05;;;;;;;18.90;10.93;;;11.50;99.90;;;;;;4160076;28;20025;-56
2024/03/23 08:44:07;;;;;;;19.97;11.53;;;11.60;99.90;;;;;;4160826;28;20520;-61
2024/03/23 08:46:13;;;;;;;19.43;10.93;;;11.70;99.90;;;;;;4160182;28;20033;-58
2024/03/23 08:48:14;;;;;;;20.13;10.87;;;11.80;99.90;;;;;;4169919;28;20040;-57
2024/03/23 08:50:15;;;;;;;18.53;9.73;;;12.00;99.90;;;;;;4176259;28;20025;-60
2024/03/23 08:52:16;;;;;;;18.17;9.97;;;12.00;99.90;;;;;;4177234;28;20432;-58
2024/03/23 08:54:20;;;;;;;14.60;9.40;;;11.80;99.90;;;;;;4176773;28;20091;-59
2024/03/23 08:56:21;;;;;;;16.87;10.63;;;12.00;99.90;;;;;;4175322;28;20494;-61
2024/03/23 08:58:24;;;;;;;16.20;10.07;;;12.20;99.90;;;;;;4176820;28;20094;-58
2024/03/23 09:00:26;;;;;;;17.97;9.97;;;12.30;99.90;;;;;;4176679;28;20045;-59
2024/03/23 09:02:27;;;;;;;16.40;10.40;;;12.20;99.90;;;;;;4164006;28;20115;-58
2024/03/23 09:04:28;;;;;;;19.87;10.60;;;12.30;99.90;;;;;;4164312;28;20095;-61
2024/03/23 09:06:29;;;;;;;13.57;8.90;;;12.40;99.90;;;;;;4163557;28;20025;-61
2024/03/23 09:08:30;;;;;;;18.63;10.17;;;12.30;99.90;;;;;;4172443;28;20467;-58
2024/03/23 09:10:34;;;;;;;16.73;10.50;;;12.50;99.90;;;;;;4175128;28;20081;-59
2024/03/23 09:12:36;;;;;;;16.47;9.70;;;12.60;99.90;;;;;;4173065;28;20045;-60
2024/03/23 09:14:37;;;;;;;17.93;9.67;;;12.60;99.90;;;;;;4174233;28;20094;-61
2024/03/23 09:16:38;;;;;;;20.40;10.10;;;12.60;99.90;;;;;;4176491;28;20090;-58
2024/03/23 09:18:40;;;;;;;17.30;9.80;;;12.70;99.90;;;;;;4175459;28;20110;-59
2024/03/23 09:20:41;;;;;;;16.70;9.90;;;12.80;99.90;;;;;;4176276;28;20025;-57
2024/03/23 09:22:43;;;;;;;14.77;9.83;;;12.80;99.90;;;;;;4177339;28;20021;-61
2024/03/23 09:24:44;;;;;;;14.93;9.77;;;13.00;99.90;;;;;;4176379;28;20025;-57
2024/03/23 09:26:45;;;;;;;15.77;10.17;;;13.10;99.90;;;;;;4176874;28;20078;-58
2024/03/23 09:28:49;;;;;;;16.80;10.50;;;13.10;99.90;;;;;;4176320;28;20100;-57
2024/03/23 09:30:50;;;;;;;17.60;9.77;;;13.30;99.90;;;;;;4165854;28;20107;-57
2024/03/23 09:32:51;;;;;;;14.60;9.30;;;13.50;99.90;;;;;;4174586;28;20493;-57
2024/03/23 09:34:52;;;;;;;14.73;9.93;;;13.70;99.90;;;;;;4175735;28;20045;-57
2024/03/23 09:36:53;;;;;;;17.00;10.30;;;13.80;99.90;;;;;;4162192;28;20490;-56
2024/03/23 09:38:55;;;;;;;18.47;9.93;;;13.90;99.90;;;;;;4159795;28;20030;-54
2024/03/23 09:40:57;;;;;;;16.57;10.17;;;14.00;99.90;;;;;;4160877;28;20308;-55
2024/03/23 09:42:58;;;;;;;17.73;10.53;;;13.90;99.90;;;;;;4159952;28;20067;-53
2024/03/23 09:45:01;;;;;;;14.73;9.73;;;13.90;99.90;;;;;;4164820;28;20462;-55
2024/03/23 09:47:02;;;;;;;12.87;8.73;;;13.90;99.90;;;;;;4159264;28;20095;-55
2024/03/23 09:49:05;;;;;;;13.17;9.27;;;13.90;99.90;;;;;;4160370;28;20041;-56
2024/03/23 09:51:08;;;;;;;15.73;9.47;;;14.00;99.90;;;;;;4158407;28;20103;-50
2024/03/23 09:53:13;;;;;;;15.17;9.23;;;14.30;99.90;;;;;;4160994;28;20057;-50
2024/03/23 09:55:15;;;;;;;15.17;8.97;;;14.50;99.90;;;;;;4163397;28;20452;-52
2024/03/23 09:57:16;;;;;;;13.20;8.53;;;14.50;99.90;;;;;;4166806;28;20037;-53
2024/03/23 09:59:18;;;;;;;14.30;9.40;;;14.60;99.70;;;;;;4175466;28;20834;-54
2024/03/23 10:01:19;;;;;;;11.03;8.63;;;14.70;99.90;;;;;;4163174;28;20417;-54
2024/03/23 10:03:21;;;;;;;12.67;8.67;;;14.70;99.00;;;;;;4164812;28;20025;-57
2024/03/23 10:05:23;;;;;;;16.27;8.70;;;14.80;99.00;;;;;;4171742;28;20050;-55
2024/03/23 10:07:25;;;;;;;14.10;9.10;;;14.90;98.90;;;;;;4179964;28;20021;-56
2024/03/23 10:09:27;;;;;;;14.55;8.75;;;15.10;98.60;;;;;;4178875;28;20103;-55
2024/03/23 10:11:29;;;;;;;13.98;7.68;;;15.30;98.20;;;;;;4167810;28;20551;-52
2024/03/23 10:13:30;;;;;;;15.65;7.80;;;15.50;98.00;;;;;;4178661;28;20052;-53
2024/03/23 10:15:34;;;;;;;12.40;7.65;;;15.60;97.20;;;;;;4179888;28;20025;-54
2024/03/23 10:17:37;;;;;;;12.63;7.78;;;15.60;96.50;;;;;;4178419;28;20075;-57
2024/03/23 10:19:39;;;;;;;10.43;6.72;;;15.60;96.40;;;;;;4180244;28;20037;-52
2024/03/23 10:21:51;;;;;;;11.07;7.05;;;15.60;95.80;;;;;;4179263;28;20082;-59
2024/03/23 10:23:53;;;;;;;15.48;7.32;;;15.70;95.70;;;;;;4179803;28;20053;-57